createdAt,value
2023-02-17T00:00:06.187Z,3.10
2023-02-17T00:01:06.208Z,2.30
2023-02-17T00:02:06.179Z,3.30
2023-02-17T00:03:06.170Z,2.00
2023-02-17T00:04:06.163Z,3.90
2023-02-17T00:05:06.153Z,3.50
2023-02-17T00:06:06.384Z,2.50
2023-02-17T00:07:06.141Z,2.50
2023-02-17T00:08:06.142Z,2.70
2023-02-17T00:09:06.120Z,2.90
2023-02-17T00:10:06.138Z,2.00
2023-02-17T00:11:06.123Z,2.80
2023-02-17T00:12:06.113Z,2.90
2023-02-17T00:13:06.102Z,3.00
2023-02-17T00:14:06.092Z,2.00
2023-02-17T00:15:06.088Z,2.20
2023-02-17T00:16:06.392Z,2.20
2023-02-17T00:17:06.079Z,3.20
2023-02-17T00:18:06.076Z,2.60
2023-02-17T00:19:06.054Z,2.30
2023-02-17T00:20:06.071Z,3.00
2023-02-17T00:21:06.069Z,2.40
2023-02-17T00:22:06.039Z,2.40
2023-02-17T00:23:06.044Z,3.10
2023-02-17T00:24:06.059Z,2.30
2023-02-17T00:25:06.046Z,2.10
2023-02-17T00:26:06.418Z,1.80
2023-02-17T00:27:06.006Z,2.00
2023-02-17T00:28:06.007Z,2.40
2023-02-17T00:29:06.004Z,2.10
2023-02-17T00:30:06.047Z,2.70
2023-02-17T00:31:06.072Z,2.80
2023-02-17T00:32:06.066Z,3.60
2023-02-17T00:33:05.972Z,2.30
2023-02-17T00:34:05.989Z,2.60
2023-02-17T00:35:05.966Z,2.50
2023-02-17T00:36:06.360Z,2.70
2023-02-17T00:37:05.953Z,1.90
2023-02-17T00:38:05.951Z,2.40
2023-02-17T00:39:05.960Z,3.40
2023-02-17T00:40:05.951Z,2.20
2023-02-17T00:41:05.952Z,2.30
2023-02-17T00:42:05.926Z,3.00
2023-02-17T00:43:05.910Z,2.20
2023-02-17T00:44:05.920Z,2.50
2023-02-17T00:45:05.912Z,2.40
2023-02-17T00:46:06.250Z,2.10
2023-02-17T00:47:05.901Z,1.70
2023-02-17T00:48:05.882Z,2.10
2023-02-17T00:49:05.894Z,2.50
2023-02-17T00:50:05.876Z,2.90
2023-02-17T00:51:05.874Z,2.80
2023-02-17T00:52:05.866Z,2.60
2023-02-17T00:53:05.857Z,3.30
2023-02-17T00:54:05.845Z,1.90
2023-02-17T00:55:05.841Z,2.10
2023-02-17T00:56:06.168Z,3.00
2023-02-17T00:57:05.841Z,2.30
2023-02-17T00:58:05.828Z,2.00
2023-02-17T00:59:05.832Z,1.90
2023-02-17T01:00:05.800Z,2.80
2023-02-17T01:01:05.843Z,1.90
2023-02-17T01:02:05.797Z,2.50
2023-02-17T01:03:05.810Z,2.00
2023-02-17T01:04:05.784Z,2.20
2023-02-17T01:05:05.845Z,2.70
2023-02-17T01:06:06.043Z,2.80
2023-02-17T01:07:06.834Z,2.70
2023-02-17T01:08:05.771Z,2.10
2023-02-17T01:09:05.777Z,3.10
2023-02-17T01:10:05.749Z,2.50
2023-02-17T01:11:05.741Z,2.70
2023-02-17T01:12:05.746Z,2.70
2023-02-17T01:13:05.769Z,2.50
2023-02-17T01:14:05.727Z,1.80
2023-02-17T01:15:05.720Z,2.10
2023-02-17T01:16:05.907Z,2.80
2023-02-17T01:17:05.705Z,3.00
2023-02-17T01:18:05.701Z,3.00
2023-02-17T01:19:05.701Z,1.90
2023-02-17T01:20:05.696Z,2.10
2023-02-17T01:21:05.677Z,2.20
2023-02-17T01:22:05.676Z,3.10
2023-02-17T01:23:05.668Z,2.70
2023-02-17T01:24:05.666Z,2.70
2023-02-17T01:25:05.656Z,2.20
2023-02-17T01:26:06.080Z,3.00
2023-02-17T01:27:05.639Z,2.80
2023-02-17T01:28:05.640Z,2.20
2023-02-17T01:29:05.632Z,2.10
2023-02-17T01:30:05.644Z,2.50
2023-02-17T01:31:05.728Z,2.60
2023-02-17T01:32:05.669Z,2.50
2023-02-17T01:33:05.613Z,3.40
2023-02-17T01:34:05.606Z,2.50
2023-02-17T01:35:05.598Z,2.80
2023-02-17T01:36:05.756Z,2.50
2023-02-17T01:37:05.579Z,2.10
2023-02-17T01:38:05.582Z,1.90
2023-02-17T01:39:05.573Z,2.10
2023-02-17T01:40:05.560Z,2.00
2023-02-17T01:41:05.563Z,2.30
2023-02-17T01:42:05.560Z,3.00
2023-02-17T01:43:05.546Z,2.90
2023-02-17T01:44:05.533Z,2.00
2023-02-17T01:45:05.531Z,2.30
2023-02-17T01:46:05.825Z,2.40
2023-02-17T01:47:05.524Z,1.50
2023-02-17T01:48:05.504Z,1.70
2023-02-17T01:49:05.498Z,2.30
2023-02-17T01:50:05.500Z,2.70
2023-02-17T01:51:05.486Z,2.10
2023-02-17T01:52:05.495Z,1.90
2023-02-17T01:53:05.479Z,2.30
2023-02-17T01:54:05.468Z,2.80
2023-02-17T01:55:05.464Z,2.60
2023-02-17T01:56:05.840Z,1.70
2023-02-17T01:57:05.452Z,2.90
2023-02-17T01:58:05.459Z,1.90
2023-02-17T01:59:05.438Z,2.50
2023-02-17T02:00:05.429Z,2.50
2023-02-17T02:01:05.433Z,2.30
2023-02-17T02:02:05.551Z,2.00
2023-02-17T02:03:05.412Z,2.20
2023-02-17T02:04:05.412Z,2.00
2023-02-17T02:05:05.394Z,2.20
2023-02-17T02:06:05.886Z,1.80
2023-02-17T02:07:05.389Z,2.30
2023-02-17T02:08:05.394Z,2.00
2023-02-17T02:09:05.385Z,2.40
2023-02-17T02:10:05.364Z,2.60
2023-02-17T02:11:05.362Z,2.90
2023-02-17T02:12:05.354Z,2.10
2023-02-17T02:13:05.363Z,2.30
2023-02-17T02:14:05.341Z,2.40
2023-02-17T02:15:05.360Z,2.00
2023-02-17T02:16:05.671Z,1.90
2023-02-17T02:17:05.337Z,2.30
2023-02-17T02:18:05.319Z,2.10
2023-02-17T02:19:05.329Z,2.20
2023-02-17T02:20:05.319Z,2.20
2023-02-17T02:21:05.299Z,2.00
2023-02-17T02:22:05.305Z,2.50
2023-02-17T02:23:05.289Z,2.30
2023-02-17T02:24:05.293Z,2.10
2023-02-17T02:25:05.279Z,2.30
2023-02-17T02:26:05.659Z,2.40
2023-02-17T02:27:05.269Z,1.70
2023-02-17T02:28:05.256Z,2.20
2023-02-17T02:29:05.264Z,2.10
2023-02-17T02:30:05.253Z,2.40
2023-02-17T02:31:05.259Z,2.40
2023-02-17T02:32:05.228Z,2.10
2023-02-17T02:33:05.239Z,2.10
2023-02-17T02:34:05.221Z,2.50
2023-02-17T02:35:05.219Z,2.00
2023-02-17T02:36:05.621Z,2.00
2023-02-17T02:37:05.213Z,2.20
2023-02-17T02:38:06.991Z,1.90
2023-02-17T02:39:05.197Z,2.00
2023-02-17T02:40:05.178Z,1.70
2023-02-17T02:41:05.174Z,1.30
2023-02-17T02:42:05.178Z,2.10
2023-02-17T02:43:05.185Z,2.20
2023-02-17T02:44:05.167Z,1.90
2023-02-17T02:45:05.153Z,2.20
2023-02-17T02:46:05.818Z,1.80
2023-02-17T02:47:05.153Z,2.10
2023-02-17T02:48:05.136Z,2.30
2023-02-17T02:49:05.137Z,1.70
2023-02-17T02:50:05.128Z,1.90
2023-02-17T02:51:05.112Z,1.90
2023-02-17T02:52:05.107Z,2.40
2023-02-17T02:53:05.107Z,1.90
2023-02-17T02:54:05.096Z,1.70
2023-02-17T02:55:05.089Z,1.90
2023-02-17T02:56:05.326Z,1.90
2023-02-17T02:57:05.089Z,1.60
2023-02-17T02:58:05.080Z,2.10
2023-02-17T02:59:05.071Z,2.50
2023-02-17T03:00:05.063Z,2.10
2023-02-17T03:01:05.080Z,1.80
2023-02-17T03:02:05.051Z,1.90
2023-02-17T03:03:05.056Z,2.20
2023-02-17T03:04:05.128Z,1.80
2023-02-17T03:05:05.043Z,2.30
2023-02-17T03:06:05.355Z,2.30
2023-02-17T03:07:05.025Z,2.10
2023-02-17T03:08:05.018Z,2.00
2023-02-17T03:09:05.022Z,1.70
2023-02-17T03:10:04.996Z,2.40
2023-02-17T03:11:05.003Z,2.30
2023-02-17T03:12:05.001Z,1.60
2023-02-17T03:13:04.984Z,1.80
2023-02-17T03:14:04.982Z,1.80
2023-02-17T03:15:04.979Z,1.80
2023-02-17T03:16:05.416Z,1.40
2023-02-17T03:17:04.963Z,1.60
2023-02-17T03:18:04.950Z,2.10
2023-02-17T03:19:04.956Z,1.70
2023-02-17T03:20:04.944Z,2.40
2023-02-17T03:21:04.940Z,2.10
2023-02-17T03:22:04.928Z,2.40
2023-02-17T03:23:04.930Z,2.20
2023-02-17T03:24:04.928Z,2.40
2023-02-17T03:25:04.913Z,1.50
2023-02-17T03:26:05.262Z,1.90
2023-02-17T03:27:04.911Z,2.10
2023-02-17T03:28:04.892Z,2.10
2023-02-17T03:29:04.892Z,1.80
2023-02-17T03:30:04.921Z,2.10
2023-02-17T03:31:04.889Z,2.10
2023-02-17T03:32:05.047Z,1.90
2023-02-17T03:33:04.866Z,1.60
2023-02-17T03:34:04.880Z,1.90
2023-02-17T03:35:04.852Z,2.70
2023-02-17T03:36:05.159Z,1.50
2023-02-17T03:37:04.841Z,1.90
2023-02-17T03:38:04.833Z,1.30
2023-02-17T03:39:04.835Z,1.90
2023-02-17T03:40:04.824Z,2.30
2023-02-17T03:41:04.817Z,1.80
2023-02-17T03:42:04.808Z,1.60
2023-02-17T03:43:04.811Z,1.50
2023-02-17T03:44:04.797Z,3.00
2023-02-17T03:45:04.788Z,1.80
2023-02-17T03:46:05.263Z,1.50
2023-02-17T03:47:04.777Z,1.90
2023-02-17T03:48:04.786Z,1.30
2023-02-17T03:49:04.804Z,1.30
2023-02-17T03:50:04.768Z,1.70
2023-02-17T03:51:04.766Z,1.60
2023-02-17T03:52:04.753Z,2.30
2023-02-17T03:53:04.750Z,2.00
2023-02-17T03:54:04.736Z,1.70
2023-02-17T03:55:04.739Z,1.30
2023-02-17T03:56:05.066Z,1.40
2023-02-17T03:57:04.731Z,2.00
2023-02-17T03:58:04.712Z,1.60
2023-02-17T03:59:04.697Z,2.10
2023-02-17T04:00:04.692Z,1.90
2023-02-17T04:01:04.708Z,1.80
2023-02-17T04:02:04.687Z,2.50
2023-02-17T04:03:04.699Z,1.90
2023-02-17T04:04:04.711Z,1.90
2023-02-17T04:05:04.660Z,1.50
2023-02-17T04:06:04.993Z,1.30
2023-02-17T04:07:04.661Z,1.30
2023-02-17T04:08:04.644Z,1.80
2023-02-17T04:09:04.641Z,1.60
2023-02-17T04:10:06.284Z,1.60
2023-02-17T04:11:04.619Z,2.30
2023-02-17T04:12:04.632Z,1.80
2023-02-17T04:13:04.618Z,2.00
2023-02-17T04:14:04.622Z,1.60
2023-02-17T04:15:04.604Z,2.40
2023-02-17T04:16:05.158Z,1.60
2023-02-17T04:17:04.590Z,1.60
2023-02-17T04:18:04.586Z,2.40
2023-02-17T04:19:04.588Z,1.70
2023-02-17T04:20:04.571Z,1.40
2023-02-17T04:21:04.577Z,1.80
2023-02-17T04:22:04.562Z,1.70
2023-02-17T04:23:04.550Z,1.80
2023-02-17T04:24:04.550Z,2.10
2023-02-17T04:25:04.544Z,1.50
2023-02-17T04:26:04.892Z,1.70
2023-02-17T04:27:04.523Z,1.60
2023-02-17T04:28:04.528Z,1.50
2023-02-17T04:29:04.525Z,1.40
2023-02-17T04:30:04.551Z,1.50
2023-02-17T04:31:04.643Z,1.50
2023-02-17T04:32:04.554Z,1.60
2023-02-17T04:33:04.495Z,2.10
2023-02-17T04:34:04.500Z,1.40
2023-02-17T04:35:04.480Z,1.50
2023-02-17T04:36:04.899Z,1.50
2023-02-17T04:37:04.479Z,1.40
2023-02-17T04:38:04.462Z,1.80
2023-02-17T04:39:04.457Z,1.50
2023-02-17T04:40:04.454Z,1.80
2023-02-17T04:41:04.443Z,1.40
2023-02-17T04:42:04.444Z,2.00
2023-02-17T04:43:04.436Z,1.80
2023-02-17T04:44:04.424Z,1.30
2023-02-17T04:45:04.443Z,1.70
2023-02-17T04:46:04.985Z,1.60
2023-02-17T04:47:04.410Z,2.40
2023-02-17T04:48:04.403Z,1.50
2023-02-17T04:49:04.398Z,2.50
2023-02-17T04:50:04.394Z,1.40
2023-02-17T04:51:04.384Z,2.10
2023-02-17T04:52:04.382Z,1.70
2023-02-17T04:53:04.362Z,2.10
2023-02-17T04:54:04.363Z,1.50
2023-02-17T04:55:04.375Z,1.60
2023-02-17T04:56:04.737Z,1.80
2023-02-17T04:57:04.343Z,1.70
2023-02-17T04:58:04.337Z,1.60
2023-02-17T04:59:04.328Z,2.00
2023-02-17T05:00:04.340Z,1.30
2023-02-17T05:01:04.315Z,1.10
2023-02-17T05:02:04.314Z,1.80
2023-02-17T05:03:04.320Z,1.40
2023-02-17T05:04:04.295Z,1.90
2023-02-17T05:05:04.350Z,1.50
2023-02-17T05:06:04.506Z,1.60
2023-02-17T05:07:04.294Z,1.60
2023-02-17T05:08:04.295Z,1.30
2023-02-17T05:09:04.275Z,2.30
2023-02-17T05:10:04.268Z,1.60
2023-02-17T05:11:04.263Z,1.80
2023-02-17T05:12:04.261Z,1.90
2023-02-17T05:13:04.240Z,1.80
2023-02-17T05:14:04.248Z,1.50
2023-02-17T05:15:04.254Z,1.80
2023-02-17T05:16:04.493Z,1.70
2023-02-17T05:17:04.225Z,1.80
2023-02-17T05:18:04.215Z,1.40
2023-02-17T05:19:04.210Z,1.50
2023-02-17T05:20:04.203Z,2.00
2023-02-17T05:21:04.200Z,1.90
2023-02-17T05:22:04.190Z,1.60
2023-02-17T05:23:04.195Z,1.60
2023-02-17T05:24:04.185Z,1.10
2023-02-17T05:25:04.187Z,1.70
2023-02-17T05:26:04.506Z,1.50
2023-02-17T05:27:04.165Z,1.20
2023-02-17T05:28:04.180Z,1.30
2023-02-17T05:29:04.148Z,2.00
2023-02-17T05:30:04.209Z,2.20
2023-02-17T05:31:04.176Z,1.20
2023-02-17T05:32:04.209Z,1.90
2023-02-17T05:33:04.118Z,1.80
2023-02-17T05:34:04.124Z,1.60
2023-02-17T05:35:04.115Z,1.60
2023-02-17T05:36:04.448Z,1.30
2023-02-17T05:37:04.114Z,1.30
2023-02-17T05:38:04.105Z,1.10
2023-02-17T05:39:04.094Z,1.60
2023-02-17T05:40:04.086Z,1.70
2023-02-17T05:41:04.077Z,2.00
2023-02-17T05:42:04.080Z,1.40
2023-02-17T05:43:04.073Z,1.40
2023-02-17T05:44:04.068Z,1.70
2023-02-17T05:45:04.055Z,1.20
2023-02-17T05:46:04.364Z,1.50
2023-02-17T05:47:04.049Z,1.50
2023-02-17T05:48:04.039Z,1.20
2023-02-17T05:49:04.027Z,1.70
2023-02-17T05:50:04.034Z,1.70
2023-02-17T05:51:04.020Z,1.90
2023-02-17T05:52:04.011Z,1.60
2023-02-17T05:53:04.007Z,1.30
2023-02-17T05:54:03.998Z,1.70
2023-02-17T05:55:03.990Z,1.40
2023-02-17T05:56:04.503Z,1.60
2023-02-17T05:57:03.974Z,1.70
2023-02-17T05:58:03.992Z,1.30
2023-02-17T05:59:03.973Z,1.50
2023-02-17T06:00:03.979Z,1.70
2023-02-17T06:01:03.957Z,2.00
2023-02-17T06:02:03.948Z,1.70
2023-02-17T06:03:03.991Z,1.90
2023-02-17T06:04:03.954Z,1.50
2023-02-17T06:05:04.076Z,1.30
2023-02-17T06:06:04.063Z,1.60
2023-02-17T06:07:03.921Z,1.70
2023-02-17T06:08:03.944Z,1.60
2023-02-17T06:09:03.940Z,1.10
2023-02-17T06:10:03.911Z,1.90
2023-02-17T06:11:03.898Z,1.60
2023-02-17T06:12:03.897Z,1.30
2023-02-17T06:13:03.889Z,1.40
2023-02-17T06:14:03.882Z,0.90
2023-02-17T06:15:03.908Z,1.80
2023-02-17T06:16:04.038Z,1.80
2023-02-17T06:17:03.866Z,2.00
2023-02-17T06:18:03.856Z,1.60
2023-02-17T06:19:03.856Z,1.20
2023-02-17T06:20:03.844Z,2.90
2023-02-17T06:21:03.840Z,1.90
2023-02-17T06:22:03.852Z,2.40
2023-02-17T06:23:03.828Z,1.70
2023-02-17T06:24:03.815Z,1.70
2023-02-17T06:25:03.858Z,1.60
2023-02-17T06:26:04.158Z,1.70
2023-02-17T06:27:03.795Z,1.90
2023-02-17T06:28:03.793Z,1.40
2023-02-17T06:29:03.794Z,1.80
2023-02-17T06:30:03.791Z,1.70
2023-02-17T06:31:03.906Z,1.40
2023-02-17T06:32:03.868Z,1.80
2023-02-17T06:33:03.791Z,1.40
2023-02-17T06:34:06.406Z,1.40
2023-02-17T06:35:03.752Z,1.40
2023-02-17T06:36:03.999Z,1.40
2023-02-17T06:37:03.730Z,1.40
2023-02-17T06:38:03.802Z,1.30
2023-02-17T06:39:03.740Z,1.60
2023-02-17T06:40:03.714Z,2.00
2023-02-17T06:41:03.729Z,1.70
2023-02-17T06:42:03.708Z,1.90
2023-02-17T06:43:03.705Z,1.70
2023-02-17T06:44:03.697Z,1.70
2023-02-17T06:45:03.702Z,1.60
2023-02-17T06:46:03.761Z,1.40
2023-02-17T06:47:03.680Z,1.20
2023-02-17T06:48:03.680Z,1.60
2023-02-17T06:49:03.663Z,1.70
2023-02-17T06:50:03.667Z,1.70
2023-02-17T06:51:03.652Z,1.40
2023-02-17T06:52:03.648Z,1.40
2023-02-17T06:53:03.640Z,1.50
2023-02-17T06:54:03.650Z,1.70
2023-02-17T06:55:03.626Z,1.30
2023-02-17T06:56:03.723Z,1.60
2023-02-17T06:57:03.625Z,1.50
2023-02-17T06:58:03.613Z,1.20
2023-02-17T06:59:03.608Z,1.80
2023-02-17T07:00:03.594Z,1.90
2023-02-17T07:01:03.587Z,1.40
2023-02-17T07:02:03.689Z,1.40
2023-02-17T07:03:03.739Z,1.80
2023-02-17T07:04:03.587Z,1.50
2023-02-17T07:05:03.566Z,1.50
2023-02-17T07:06:03.667Z,1.20
2023-02-17T07:07:03.552Z,1.60
2023-02-17T07:08:03.558Z,1.60
2023-02-17T07:09:03.544Z,1.80
2023-02-17T07:10:03.546Z,1.30
2023-02-17T07:11:03.537Z,1.40
2023-02-17T07:12:03.533Z,1.60
2023-02-17T07:13:03.536Z,1.60
2023-02-17T07:14:03.516Z,1.00
2023-02-17T07:15:03.513Z,2.00
2023-02-17T07:16:03.627Z,1.90
2023-02-17T07:17:03.490Z,1.30
2023-02-17T07:18:03.498Z,1.70
2023-02-17T07:19:03.485Z,1.90
2023-02-17T07:20:03.489Z,1.60
2023-02-17T07:21:03.487Z,1.20
2023-02-17T07:22:03.473Z,1.50
2023-02-17T07:23:03.464Z,1.40
2023-02-17T07:24:03.464Z,1.50
2023-02-17T07:25:03.449Z,1.20
2023-02-17T07:26:03.673Z,2.00
2023-02-17T07:27:03.455Z,1.20
2023-02-17T07:28:03.455Z,1.90
2023-02-17T07:29:03.430Z,1.60
2023-02-17T07:30:03.448Z,1.60
2023-02-17T07:31:03.447Z,2.10
2023-02-17T07:32:03.485Z,1.70
2023-02-17T07:33:05.440Z,1.70
2023-02-17T07:34:03.407Z,1.60
2023-02-17T07:35:03.400Z,1.50
2023-02-17T07:36:03.517Z,1.40
2023-02-17T07:37:03.384Z,1.50
2023-02-17T07:38:03.388Z,1.50
2023-02-17T07:39:03.379Z,2.00
2023-02-17T07:40:03.367Z,1.30
2023-02-17T07:41:03.365Z,1.30
2023-02-17T07:42:03.376Z,1.50
2023-02-17T07:43:03.341Z,1.70
2023-02-17T07:44:03.355Z,1.40
2023-02-17T07:45:03.336Z,1.70
2023-02-17T07:46:03.397Z,1.80
2023-02-17T07:47:03.323Z,1.60
2023-02-17T07:48:03.311Z,2.10
2023-02-17T07:49:03.305Z,1.60
2023-02-17T07:50:03.306Z,1.90
2023-02-17T07:51:03.295Z,1.80
2023-02-17T07:52:05.191Z,1.90
2023-02-17T07:53:03.281Z,1.90
2023-02-17T07:54:03.277Z,1.30
2023-02-17T07:55:03.270Z,1.80
2023-02-17T07:56:03.271Z,1.80
2023-02-17T07:57:03.259Z,1.40
2023-02-17T07:58:03.257Z,1.80
2023-02-17T07:59:03.251Z,1.40
2023-02-17T08:00:03.245Z,1.50
2023-02-17T08:01:03.241Z,1.70
2023-02-17T08:02:03.301Z,1.70
2023-02-17T08:03:03.225Z,1.60
2023-02-17T08:04:03.266Z,1.50
2023-02-17T08:05:03.213Z,1.50
2023-02-17T08:06:03.241Z,1.20
2023-02-17T08:07:03.195Z,1.30
2023-02-17T08:08:03.194Z,1.50
2023-02-17T08:09:03.191Z,1.70
2023-02-17T08:10:03.173Z,1.60
2023-02-17T08:11:03.182Z,1.60
2023-02-17T08:12:03.186Z,1.70
2023-02-17T08:13:03.155Z,1.30
2023-02-17T08:14:03.156Z,1.70
2023-02-17T08:15:03.154Z,1.80
2023-02-17T08:16:03.161Z,1.30
2023-02-17T08:17:03.136Z,1.60
2023-02-17T08:18:03.132Z,1.60
2023-02-17T08:19:03.123Z,1.80
2023-02-17T08:20:08.745Z,1.40
2023-02-17T08:21:03.283Z,1.10
2023-02-17T08:22:03.152Z,1.30
2023-02-17T08:23:03.109Z,1.40
2023-02-17T08:24:03.100Z,2.00
2023-02-17T08:25:03.105Z,1.30
2023-02-17T08:26:03.092Z,1.70
2023-02-17T08:27:03.102Z,1.20
2023-02-17T08:28:03.096Z,1.20
2023-02-17T08:29:03.090Z,2.00
2023-02-17T08:30:03.150Z,1.70
2023-02-17T08:31:03.215Z,1.60
2023-02-17T08:32:03.266Z,1.50
2023-02-17T08:33:03.050Z,1.60
2023-02-17T08:34:03.061Z,1.30
2023-02-17T08:35:03.065Z,1.70
2023-02-17T08:36:03.054Z,1.20
2023-02-17T08:37:03.028Z,1.80
2023-02-17T08:38:03.026Z,1.40
2023-02-17T08:39:03.037Z,2.30
2023-02-17T08:40:03.013Z,1.40
2023-02-17T08:41:03.001Z,2.00
2023-02-17T08:42:02.992Z,1.30
2023-02-17T08:43:03.692Z,1.70
2023-02-17T08:44:02.981Z,2.00
2023-02-17T08:45:02.971Z,2.20
2023-02-17T08:46:02.992Z,1.70
2023-02-17T08:47:02.982Z,1.20
2023-02-17T08:48:02.970Z,2.10
2023-02-17T08:49:02.951Z,1.10
2023-02-17T08:50:02.946Z,1.00
2023-02-17T08:51:02.981Z,2.00
2023-02-17T08:52:02.965Z,1.20
2023-02-17T08:53:02.938Z,1.40
2023-02-17T08:54:02.925Z,1.20
2023-02-17T08:55:02.915Z,1.90
2023-02-17T08:56:02.956Z,1.40
2023-02-17T08:57:02.930Z,1.50
2023-02-17T08:58:02.960Z,1.80
2023-02-17T08:59:02.929Z,1.60
2023-02-17T09:00:04.857Z,1.30
2023-02-17T09:01:02.970Z,1.60
2023-02-17T09:02:02.878Z,1.30
2023-02-17T09:03:02.870Z,1.10
2023-02-17T09:04:02.882Z,1.50
2023-02-17T09:05:02.909Z,1.10
2023-02-17T09:06:02.866Z,1.00
2023-02-17T09:07:02.860Z,1.40
2023-02-17T09:08:02.856Z,1.00
2023-02-17T09:09:02.861Z,1.50
2023-02-17T09:10:02.890Z,1.20
2023-02-17T09:11:02.861Z,1.00
2023-02-17T09:12:02.827Z,1.20
2023-02-17T09:13:02.877Z,1.20
2023-02-17T09:14:02.820Z,1.50
2023-02-17T09:15:02.804Z,1.30
2023-02-17T09:16:02.892Z,1.30
2023-02-17T09:17:02.802Z,1.40
2023-02-17T09:18:02.828Z,1.50
2023-02-17T09:19:02.817Z,1.20
2023-02-17T09:20:02.789Z,1.20
2023-02-17T09:21:02.782Z,1.20
2023-02-17T09:22:02.788Z,1.00
2023-02-17T09:23:02.786Z,1.10
2023-02-17T09:24:02.757Z,1.40
2023-02-17T09:25:02.764Z,1.10
2023-02-17T09:26:02.787Z,1.20
2023-02-17T09:27:02.769Z,1.40
2023-02-17T09:28:02.774Z,1.30
2023-02-17T09:29:02.804Z,1.30
2023-02-17T09:30:02.778Z,1.50
2023-02-17T09:31:02.763Z,1.60
2023-02-17T09:32:02.862Z,1.50
2023-02-17T09:33:02.780Z,1.20
2023-02-17T09:34:02.730Z,1.10
2023-02-17T09:35:02.724Z,1.80
2023-02-17T09:36:02.708Z,2.00
2023-02-17T09:37:02.734Z,1.20
2023-02-17T09:38:02.694Z,1.40
2023-02-17T09:39:02.710Z,1.50
2023-02-17T09:40:02.685Z,1.40
2023-02-17T09:41:02.709Z,1.20
2023-02-17T09:42:02.678Z,1.20
2023-02-17T09:43:02.696Z,1.30
2023-02-17T09:44:02.672Z,1.70
2023-02-17T09:45:02.651Z,1.30
2023-02-17T09:46:02.765Z,1.50
2023-02-17T09:47:02.975Z,1.20
2023-02-17T09:48:02.658Z,0.90
2023-02-17T09:49:02.658Z,1.40
2023-02-17T09:50:02.649Z,1.40
2023-02-17T09:51:02.675Z,1.40
2023-02-17T09:52:02.633Z,1.50
2023-02-17T09:53:02.622Z,1.10
2023-02-17T09:54:02.642Z,1.00
2023-02-17T09:55:02.613Z,1.20
2023-02-17T09:56:02.635Z,1.40
2023-02-17T09:57:02.612Z,1.40
2023-02-17T09:58:02.648Z,1.40
2023-02-17T09:59:02.647Z,1.50
2023-02-17T10:00:02.603Z,1.40
2023-02-17T10:01:02.591Z,1.10
2023-02-17T10:02:02.574Z,1.30
2023-02-17T10:03:02.665Z,1.20
2023-02-17T10:04:02.626Z,2.50
2023-02-17T10:05:02.683Z,1.50
2023-02-17T10:06:02.561Z,1.00
2023-02-17T10:07:02.543Z,1.50
2023-02-17T10:08:02.531Z,1.10
2023-02-17T10:09:02.616Z,1.20
2023-02-17T10:10:02.531Z,1.10
2023-02-17T10:11:02.591Z,1.10
2023-02-17T10:12:02.516Z,1.70
2023-02-17T10:13:02.526Z,2.50
2023-02-17T10:14:02.524Z,1.90
2023-02-17T10:15:02.504Z,1.30
2023-02-17T10:16:02.523Z,1.50
2023-02-17T10:17:02.508Z,1.10
2023-02-17T10:18:02.517Z,1.10
2023-02-17T10:19:02.498Z,1.00
2023-02-17T10:20:02.484Z,1.10
2023-02-17T10:21:02.554Z,1.30
2023-02-17T10:22:02.565Z,1.20
2023-02-17T10:23:02.498Z,1.20
2023-02-17T10:24:02.489Z,1.10
2023-02-17T10:25:02.553Z,1.10
2023-02-17T10:26:02.513Z,1.60
2023-02-17T10:27:02.470Z,1.10
2023-02-17T10:28:02.530Z,1.20
2023-02-17T10:29:02.469Z,1.10
2023-02-17T10:30:02.580Z,1.00
2023-02-17T10:31:02.632Z,1.10
2023-02-17T10:32:02.548Z,1.10
2023-02-17T10:33:02.471Z,1.10
2023-02-17T10:34:02.493Z,0.90
2023-02-17T10:35:02.445Z,1.00
2023-02-17T10:36:02.472Z,1.30
2023-02-17T10:37:02.437Z,1.00
2023-02-17T10:38:02.531Z,1.20
2023-02-17T10:39:02.417Z,1.20
2023-02-17T10:40:02.420Z,1.10
2023-02-17T10:41:02.411Z,1.00
2023-02-17T10:42:02.410Z,1.20
2023-02-17T10:43:02.399Z,1.20
2023-02-17T10:44:02.409Z,1.20
2023-02-17T10:45:02.501Z,1.50
2023-02-17T10:46:02.406Z,1.10
2023-02-17T10:47:02.404Z,1.10
2023-02-17T10:48:02.389Z,1.00
2023-02-17T10:49:02.399Z,1.20
2023-02-17T10:50:02.398Z,1.20
2023-02-17T10:51:02.390Z,1.10
2023-02-17T10:52:02.388Z,0.90
2023-02-17T10:53:02.383Z,1.30
2023-02-17T10:54:02.388Z,1.10
2023-02-17T10:55:06.524Z,1.50
2023-02-17T10:56:02.383Z,1.20
2023-02-17T10:57:02.421Z,1.10
2023-02-17T10:58:02.392Z,1.00
2023-02-17T10:59:02.376Z,1.00
2023-02-17T11:00:02.370Z,1.10
2023-02-17T11:01:02.432Z,1.10
2023-02-17T11:02:02.372Z,1.30
2023-02-17T11:03:02.400Z,1.20
2023-02-17T11:04:02.430Z,1.20
2023-02-17T11:05:02.383Z,1.20
2023-02-17T11:06:02.368Z,1.10
2023-02-17T11:07:02.366Z,1.00
2023-02-17T11:08:02.365Z,1.00
2023-02-17T11:09:02.357Z,1.00
2023-02-17T11:10:02.365Z,1.00
2023-02-17T11:11:02.362Z,0.90
2023-02-17T11:12:02.360Z,1.00
2023-02-17T11:13:02.346Z,0.90
2023-02-17T11:14:02.372Z,1.00
2023-02-17T11:15:02.386Z,0.90
2023-02-17T11:16:02.396Z,1.20
2023-02-17T11:17:02.375Z,1.10
2023-02-17T11:18:02.348Z,0.80
2023-02-17T11:19:02.359Z,0.90
2023-02-17T11:20:02.356Z,0.90
2023-02-17T11:21:02.350Z,1.00
2023-02-17T11:22:02.343Z,1.00
2023-02-17T11:23:02.346Z,1.30
2023-02-17T11:24:02.347Z,1.00
2023-02-17T11:25:02.337Z,1.00
2023-02-17T11:26:02.337Z,0.90
2023-02-17T11:27:02.340Z,0.90
2023-02-17T11:28:02.327Z,1.00
2023-02-17T11:29:02.335Z,1.00
2023-02-17T11:30:02.360Z,0.90
2023-02-17T11:31:02.342Z,0.90
2023-02-17T11:32:02.470Z,1.00
2023-02-17T11:33:02.321Z,1.10
2023-02-17T11:34:02.314Z,0.90
2023-02-17T11:35:02.317Z,1.00
2023-02-17T11:36:02.315Z,0.80
2023-02-17T11:37:02.309Z,0.80
2023-02-17T11:38:02.303Z,1.10
2023-02-17T11:39:02.304Z,0.80
2023-02-17T11:40:02.298Z,1.10
2023-02-17T11:41:02.308Z,0.90
2023-02-17T11:42:02.300Z,0.90
2023-02-17T11:43:02.294Z,1.00
2023-02-17T11:44:02.302Z,1.30
2023-02-17T11:45:02.300Z,0.90
2023-02-17T11:46:02.315Z,0.90
2023-02-17T11:47:02.282Z,0.90
2023-02-17T11:48:02.286Z,1.00
2023-02-17T11:49:02.299Z,0.90
2023-02-17T11:50:02.273Z,0.90
2023-02-17T11:51:02.266Z,0.90
2023-02-17T11:52:02.271Z,0.90
2023-02-17T11:53:02.264Z,0.90
2023-02-17T11:54:02.277Z,0.90
2023-02-17T11:55:02.266Z,1.00
2023-02-17T11:56:02.267Z,1.00
2023-02-17T11:57:02.245Z,1.00
2023-02-17T11:58:02.235Z,0.80
2023-02-17T11:59:02.261Z,1.00
2023-02-17T12:00:02.236Z,1.30
2023-02-17T12:01:02.236Z,1.00
2023-02-17T12:02:02.227Z,0.80
2023-02-17T12:03:02.246Z,0.90
2023-02-17T12:04:02.219Z,0.80
2023-02-17T12:05:02.295Z,0.90
2023-02-17T12:06:02.220Z,1.00
2023-02-17T12:07:02.217Z,0.90
2023-02-17T12:08:02.210Z,1.00
2023-02-17T12:09:02.201Z,0.80
2023-02-17T12:10:02.207Z,1.00
2023-02-17T12:11:02.200Z,0.90
2023-02-17T12:12:02.188Z,0.90
2023-02-17T12:13:02.186Z,0.90
2023-02-17T12:14:02.180Z,0.90
2023-02-17T12:15:02.201Z,0.80
2023-02-17T12:16:02.180Z,1.30
2023-02-17T12:17:02.174Z,0.90
2023-02-17T12:18:02.171Z,1.00
2023-02-17T12:19:02.182Z,0.80
2023-02-17T12:20:02.173Z,1.00
2023-02-17T12:21:02.163Z,0.80
2023-02-17T12:22:02.149Z,0.80
2023-02-17T12:23:02.161Z,0.90
2023-02-17T12:24:02.142Z,0.90
2023-02-17T12:25:02.148Z,0.80
2023-02-17T12:26:02.133Z,0.80
2023-02-17T12:27:02.126Z,0.90
2023-02-17T12:28:02.139Z,1.30
2023-02-17T12:29:02.128Z,1.00
2023-02-17T12:30:02.203Z,1.40
2023-02-17T12:31:02.290Z,1.00
2023-02-17T12:32:02.290Z,0.90
2023-02-17T12:33:02.117Z,0.80
2023-02-17T12:34:02.109Z,0.90
2023-02-17T12:35:02.107Z,1.20
2023-02-17T12:36:02.103Z,1.00
2023-02-17T12:37:02.098Z,1.10
2023-02-17T12:38:02.098Z,0.90
2023-02-17T12:39:02.096Z,0.90
2023-02-17T12:40:02.099Z,0.80
2023-02-17T12:41:02.079Z,0.90
2023-02-17T12:42:02.104Z,0.90
2023-02-17T12:43:02.119Z,1.10
2023-02-17T12:44:02.097Z,0.90
2023-02-17T12:45:02.073Z,0.90
2023-02-17T12:46:02.123Z,0.90
2023-02-17T12:47:02.078Z,1.00
2023-02-17T12:48:02.084Z,0.80
2023-02-17T12:49:02.074Z,1.00
2023-02-17T12:50:02.068Z,0.90
2023-02-17T12:51:02.065Z,1.10
2023-02-17T12:52:02.080Z,1.10
2023-02-17T12:53:02.067Z,1.00
2023-02-17T12:54:02.049Z,0.90
2023-02-17T12:55:02.082Z,1.10
2023-02-17T12:56:02.036Z,1.10
2023-02-17T12:57:02.050Z,0.90
2023-02-17T12:58:02.052Z,1.20
2023-02-17T12:59:02.055Z,0.90
2023-02-17T13:00:02.031Z,0.90
2023-02-17T13:01:02.059Z,1.10
2023-02-17T13:02:02.067Z,0.80
2023-02-17T13:03:02.032Z,0.80
2023-02-17T13:04:02.027Z,0.90
2023-02-17T13:05:02.019Z,0.80
2023-02-17T13:06:02.010Z,0.90
2023-02-17T13:07:02.045Z,0.90
2023-02-17T13:08:02.009Z,1.00
2023-02-17T13:09:02.007Z,1.00
2023-02-17T13:10:02.001Z,1.10
2023-02-17T13:11:02.018Z,1.10
2023-02-17T13:12:01.989Z,1.10
2023-02-17T13:13:01.985Z,0.80
2023-02-17T13:14:01.990Z,0.80
2023-02-17T13:15:01.990Z,0.80
2023-02-17T13:16:02.088Z,0.90
2023-02-17T13:17:01.994Z,0.80
2023-02-17T13:18:01.960Z,0.90